Time;durP1;ratioP1;P1;durP2;ratioP2;P2;SDS_P1;SDS_P2;PMS_P1;PMS_P2;Temp;Humidity;BMP_temperature;BMP_pressure;BME280_temperature;BME280_humidity;BME280_pressure;Samples;Min_cycle;Max_cycle;Signal;HPM_P1;HPM_P2
2021/07/04 00:01:04;;;;;;;15.50;13.90;;;19.30;99.90;;;;;;5014975;28;20810;-75
2021/07/04 00:03:33;;;;;;;14.60;13.10;;;19.30;99.90;;;;;;5012700;28;20844;-76
2021/07/04 00:06:00;;;;;;;15.60;13.87;;;19.30;99.90;;;;;;5021983;28;20776;-75
2021/07/04 00:08:27;;;;;;;23.30;14.67;;;19.30;99.90;;;;;;5031512;28;20438;-75
2021/07/04 00:10:58;;;;;;;15.53;12.70;;;19.30;99.90;;;;;;5031552;28;20568;-75
2021/07/04 00:13:27;;;;;;;16.13;13.37;;;19.20;99.90;;;;;;5021804;28;20446;-76
2021/07/04 00:15:54;;;;;;;14.27;12.77;;;19.10;99.90;;;;;;5010649;28;20445;-75
2021/07/04 00:18:23;;;;;;;14.43;12.20;;;19.10;99.90;;;;;;5028177;28;20501;-76
2021/07/04 00:20:53;;;;;;;13.47;12.07;;;19.10;99.90;;;;;;5031329;28;20528;-75
2021/07/04 00:23:21;;;;;;;15.50;11.80;;;19.10;99.90;;;;;;5023438;28;20485;-75
2021/07/04 00:25:49;;;;;;;13.30;11.77;;;19.10;99.90;;;;;;5017361;28;20480;-75
2021/07/04 00:28:16;;;;;;;15.03;10.97;;;19.10;99.90;;;;;;5017855;28;20449;-76
2021/07/04 00:30:44;;;;;;;12.17;11.00;;;19.10;99.90;;;;;;5025474;28;20576;-76
2021/07/04 00:33:11;;;;;;;12.70;10.90;;;19.10;99.90;;;;;;5019799;28;20454;-75
2021/07/04 00:35:38;;;;;;;12.10;10.90;;;19.10;99.90;;;;;;5017757;28;20454;-75
2021/07/04 00:38:08;;;;;;;11.83;10.63;;;19.10;99.90;;;;;;5028084;28;20454;-75
2021/07/04 00:40:36;;;;;;;14.13;12.50;;;19.10;99.90;;;;;;5028479;28;20481;-76
2021/07/04 00:43:03;;;;;;;13.70;12.00;;;19.10;99.90;;;;;;5002525;28;20482;-75
2021/07/04 00:45:30;;;;;;;14.23;12.73;;;19.10;99.90;;;;;;5008396;28;20454;-76
2021/07/04 00:47:57;;;;;;;15.57;13.87;;;19.10;99.90;;;;;;5011629;28;21003;-76
2021/07/04 00:50:26;;;;;;;12.40;11.10;;;19.10;99.90;;;;;;5026437;28;20460;-75
2021/07/04 00:52:54;;;;;;;12.53;11.30;;;19.10;99.90;;;;;;5030085;28;20450;-76
2021/07/04 00:55:23;;;;;;;12.87;10.90;;;19.00;99.90;;;;;;5016107;28;20963;-75
2021/07/04 00:57:51;;;;;;;12.67;11.37;;;19.00;99.90;;;;;;5018881;28;20436;-75
2021/07/04 01:00:19;;;;;;;11.20;10.10;;;19.00;99.90;;;;;;5028140;28;20489;-75
2021/07/04 01:02:47;;;;;;;12.33;11.00;;;19.00;99.90;;;;;;5018204;28;20500;-76
2021/07/04 01:05:16;;;;;;;11.80;10.53;;;19.00;99.90;;;;;;5019150;28;20473;-76
2021/07/04 01:07:45;;;;;;;11.00;9.90;;;18.90;99.90;;;;;;5013261;28;20469;-76
2021/07/04 01:10:14;;;;;;;11.60;10.40;;;18.90;99.90;;;;;;5017299;28;20432;-76
2021/07/04 01:12:43;;;;;;;11.20;9.97;;;18.90;99.90;;;;;;5020627;28;20450;-76
2021/07/04 01:15:11;;;;;;;11.03;9.93;;;18.90;99.90;;;;;;5028996;28;20457;-76
2021/07/04 01:17:39;;;;;;;11.00;9.90;;;18.80;99.90;;;;;;5030636;28;20456;-76
2021/07/04 01:20:08;;;;;;;10.13;9.13;;;18.80;99.90;;;;;;5023054;28;20465;-76
2021/07/04 01:22:38;;;;;;;10.90;9.23;;;18.80;99.90;;;;;;5023196;28;20495;-75
2021/07/04 01:25:07;;;;;;;10.03;9.07;;;18.80;99.90;;;;;;5017651;28;20449;-76
2021/07/04 01:27:35;;;;;;;8.93;8.13;;;18.80;99.90;;;;;;5021048;28;20454;-76
2021/07/04 01:30:02;;;;;;;11.37;10.27;;;18.90;99.90;;;;;;5012602;28;20479;-75
2021/07/04 01:32:29;;;;;;;12.47;10.00;;;18.90;99.90;;;;;;5024742;28;20452;-76
2021/07/04 01:34:56;;;;;;;11.13;10.00;;;18.80;99.90;;;;;;5030613;28;20450;-75
2021/07/04 01:37:22;;;;;;;11.13;10.03;;;18.80;99.90;;;;;;5020324;28;20468;-76
2021/07/04 01:39:49;;;;;;;11.20;10.10;;;18.80;99.90;;;;;;5014368;28;20462;-76
2021/07/04 01:42:18;;;;;;;14.03;10.60;;;18.80;99.90;;;;;;5009943;28;20784;-75
2021/07/04 01:44:45;;;;;;;11.47;10.37;;;18.80;99.90;;;;;;5012385;28;20976;-75
2021/07/04 01:47:12;;;;;;;10.83;9.60;;;18.70;99.90;;;;;;5010365;28;20417;-75
2021/07/04 01:49:38;;;;;;;10.70;9.70;;;18.80;99.90;;;;;;5012644;28;20463;-75
2021/07/04 01:52:06;;;;;;;11.60;10.50;;;18.70;99.90;;;;;;5013952;28;20800;-75
2021/07/04 01:54:33;;;;;;;11.43;9.83;;;18.70;99.90;;;;;;5018218;28;20455;-75
2021/07/04 01:57:11;;;;;;;11.67;10.50;;;18.70;99.90;;;;;;5027487;28;20465;-76
2021/07/04 01:59:39;;;;;;;12.97;10.57;;;18.70;99.90;;;;;;5027034;28;20441;-75
2021/07/04 02:02:06;;;;;;;10.63;9.63;;;18.60;99.90;;;;;;5014881;28;20516;-76
2021/07/04 02:04:38;;;;;;;12.73;9.43;;;18.60;99.90;;;;;;5028454;28;20516;-76
2021/07/04 02:07:05;;;;;;;10.40;9.40;;;18.60;99.90;;;;;;5019835;28;20499;-75
2021/07/04 02:09:32;;;;;;;10.17;9.17;;;18.60;99.90;;;;;;5015561;28;20858;-75
2021/07/04 02:12:00;;;;;;;10.43;9.43;;;18.60;99.90;;;;;;5012429;28;20456;-76
2021/07/04 02:14:30;;;;;;;12.03;9.53;;;18.60;99.90;;;;;;5008690;28;21026;-76
2021/07/04 02:16:59;;;;;;;9.70;8.70;;;18.60;99.90;;;;;;5011197;28;20466;-75
2021/07/04 02:19:32;;;;;;;10.50;9.40;;;18.50;99.90;;;;;;5029702;28;20523;-76
2021/07/04 02:22:00;;;;;;;9.67;8.67;;;18.50;99.90;;;;;;5015227;28;20519;-75
2021/07/04 02:24:27;;;;;;;9.47;8.27;;;18.50;99.90;;;;;;5012522;28;20969;-76
2021/07/04 02:26:54;;;;;;;9.57;8.47;;;18.50;99.90;;;;;;5010429;28;20438;-76
2021/07/04 02:29:21;;;;;;;10.13;9.10;;;18.50;99.90;;;;;;5012466;28;20429;-76
2021/07/04 02:31:48;;;;;;;10.53;9.43;;;18.50;99.90;;;;;;5014933;28;20452;-76
2021/07/04 02:34:17;;;;;;;9.67;8.70;;;18.50;99.90;;;;;;5023385;28;21427;-75
2021/07/04 02:36:44;;;;;;;9.67;8.67;;;18.50;99.90;;;;;;5031652;28;20419;-76
2021/07/04 02:39:13;;;;;;;9.27;8.33;;;18.50;99.90;;;;;;5030058;28;20432;-76
2021/07/04 02:41:40;;;;;;;9.10;8.30;;;18.50;99.90;;;;;;5029823;28;20481;-75
2021/07/04 02:44:07;;;;;;;9.80;7.87;;;18.50;99.90;;;;;;5015874;28;20467;-75
2021/07/04 02:46:34;;;;;;;8.90;8.10;;;18.50;99.90;;;;;;5011454;28;20459;-75
2021/07/04 02:49:01;;;;;;;9.60;8.07;;;18.50;99.90;;;;;;5028538;28;20409;-75
2021/07/04 02:51:30;;;;;;;9.40;8.50;;;18.50;99.90;;;;;;5029146;28;20462;-76
2021/07/04 02:53:56;;;;;;;9.40;8.50;;;18.50;99.90;;;;;;5017687;28;20447;-75
2021/07/04 02:56:23;;;;;;;10.70;9.70;;;18.50;99.90;;;;;;5012701;28;20435;-75
2021/07/04 02:58:50;;;;;;;9.17;8.33;;;18.40;99.90;;;;;;5015672;28;20793;-76
2021/07/04 03:01:17;;;;;;;10.83;8.40;;;18.40;99.90;;;;;;5013724;28;20800;-75
2021/07/04 03:03:44;;;;;;;10.07;8.90;;;18.40;99.90;;;;;;5027614;28;20487;-75
2021/07/04 03:06:11;;;;;;;12.03;8.90;;;18.40;99.90;;;;;;5021807;28;20455;-75
2021/07/04 03:08:43;;;;;;;11.40;8.47;;;18.40;99.90;;;;;;5023333;28;20458;-75
2021/07/04 03:11:10;;;;;;;12.33;8.73;;;18.40;99.90;;;;;;5023064;28;20491;-76
2021/07/04 03:13:37;;;;;;;9.87;8.97;;;18.30;99.90;;;;;;5021092;28;20465;-75
2021/07/04 03:16:04;;;;;;;10.97;8.63;;;18.30;99.90;;;;;;5015600;28;20413;-76
2021/07/04 03:18:31;;;;;;;9.87;8.87;;;18.30;99.90;;;;;;5021610;28;20427;-75
2021/07/04 03:20:58;;;;;;;9.50;8.50;;;18.20;99.90;;;;;;5028897;28;20438;-75
2021/07/04 03:23:25;;;;;;;10.77;9.63;;;18.20;99.90;;;;;;5026104;28;20461;-76
2021/07/04 03:25:54;;;;;;;10.00;9.07;;;18.20;99.90;;;;;;5021293;28;20419;-76
2021/07/04 03:28:21;;;;;;;11.50;9.40;;;18.20;99.90;;;;;;5033244;28;20456;-75
2021/07/04 03:30:48;;;;;;;10.67;8.70;;;18.10;99.90;;;;;;5035096;28;20467;-75
2021/07/04 03:33:15;;;;;;;10.27;9.23;;;18.30;99.90;;;;;;5027502;28;20466;-76
2021/07/04 03:35:42;;;;;;;11.40;8.57;;;18.20;99.90;;;;;;5032652;28;20425;-75
2021/07/04 03:38:08;;;;;;;9.90;8.67;;;18.20;99.90;;;;;;5017618;28;20447;-76
2021/07/04 03:40:35;;;;;;;10.63;9.53;;;18.20;99.90;;;;;;5015814;28;20453;-75
2021/07/04 03:43:04;;;;;;;9.83;8.93;;;18.20;99.90;;;;;;5013422;28;20421;-75
2021/07/04 03:45:31;;;;;;;10.10;9.10;;;18.20;99.90;;;;;;5015768;28;20462;-76
2021/07/04 03:47:58;;;;;;;10.93;9.80;;;18.20;99.90;;;;;;5030548;28;20438;-75
2021/07/04 03:50:25;;;;;;;10.17;9.00;;;18.20;99.90;;;;;;5033893;28;20475;-76
2021/07/04 03:52:56;;;;;;;10.80;9.70;;;18.20;99.90;;;;;;5026164;28;20437;-76
2021/07/04 03:55:23;;;;;;;10.73;9.20;;;18.20;99.90;;;;;;5022760;28;20516;-75
2021/07/04 03:57:52;;;;;;;10.57;8.93;;;18.20;99.90;;;;;;5019731;28;21498;-74
2021/07/04 04:00:21;;;;;;;12.80;11.00;;;18.20;99.90;;;;;;5017792;28;20480;-75
2021/07/04 04:02:48;;;;;;;10.20;9.13;;;18.20;99.90;;;;;;5014753;28;20473;-75
2021/07/04 04:05:16;;;;;;;11.17;10.07;;;18.20;99.90;;;;;;5029035;28;20488;-75
2021/07/04 04:07:43;;;;;;;10.67;9.67;;;18.20;99.90;;;;;;5022990;28;20433;-75
2021/07/04 04:10:12;;;;;;;16.20;10.87;;;18.20;99.90;;;;;;5025192;28;20872;-75
2021/07/04 04:12:39;;;;;;;13.67;9.73;;;18.20;99.90;;;;;;5025164;28;20431;-74
2021/07/04 04:15:08;;;;;;;11.40;10.20;;;18.30;99.90;;;;;;5016070;28;20463;-75
2021/07/04 04:17:36;;;;;;;10.27;8.50;;;18.20;99.90;;;;;;5016143;28;20440;-75
2021/07/04 04:20:04;;;;;;;12.33;10.47;;;18.30;99.90;;;;;;5011966;28;20477;-75
2021/07/04 04:22:31;;;;;;;16.07;10.27;;;18.30;99.90;;;;;;5014031;28;20427;-76
2021/07/04 04:24:58;;;;;;;12.63;11.03;;;18.30;99.90;;;;;;5012308;28;20812;-75
2021/07/04 04:27:25;;;;;;;24.40;12.50;;;18.40;99.90;;;;;;5014177;28;20785;-75
2021/07/04 04:29:52;;;;;;;13.80;11.70;;;18.40;99.90;;;;;;5017889;28;20427;-75
2021/07/04 04:32:19;;;;;;;17.93;12.40;;;18.40;99.90;;;;;;5017598;28;20411;-75
2021/07/04 04:34:47;;;;;;;14.30;12.80;;;18.50;99.90;;;;;;5011042;28;20448;-74
2021/07/04 04:37:14;;;;;;;13.93;12.53;;;18.50;99.90;;;;;;5016713;28;20548;-75
2021/07/04 04:39:41;;;;;;;14.43;12.90;;;18.50;99.90;;;;;;5011987;28;20450;-75
2021/07/04 04:42:08;;;;;;;13.70;12.03;;;18.50;99.90;;;;;;5016014;28;20473;-75
2021/07/04 04:44:35;;;;;;;14.47;12.60;;;18.40;99.90;;;;;;5022308;28;20833;-75
2021/07/04 04:47:03;;;;;;;15.00;13.00;;;18.40;99.90;;;;;;5010254;28;20440;-74
2021/07/04 04:49:30;;;;;;;19.80;13.63;;;18.50;99.90;;;;;;5027664;28;20431;-74
2021/07/04 04:51:58;;;;;;;15.70;13.50;;;18.50;99.90;;;;;;5031435;28;20440;-74
2021/07/04 04:54:25;;;;;;;13.50;12.00;;;18.60;99.90;;;;;;5028638;28;20448;-75
2021/07/04 04:56:52;;;;;;;14.27;12.77;;;18.50;99.90;;;;;;5031914;28;20424;-75
2021/07/04 04:59:19;;;;;;;13.93;11.90;;;18.60;99.90;;;;;;5029800;28;20458;-75
2021/07/04 05:01:45;;;;;;;13.60;11.47;;;18.70;99.90;;;;;;5028241;28;20481;-74
2021/07/04 05:04:12;;;;;;;13.07;11.17;;;18.70;99.90;;;;;;5031040;28;20489;-76
2021/07/04 05:06:41;;;;;;;11.33;10.13;;;18.70;99.90;;;;;;5023989;28;20437;-75
2021/07/04 05:09:09;;;;;;;11.70;10.50;;;18.80;99.90;;;;;;5019393;28;20434;-75
2021/07/04 05:11:36;;;;;;;11.60;10.40;;;18.80;99.90;;;;;;5018424;28;20830;-75
2021/07/04 05:14:03;;;;;;;12.23;10.70;;;18.80;99.90;;;;;;5014304;28;20814;-75
2021/07/04 05:16:30;;;;;;;12.83;10.77;;;18.80;99.90;;;;;;5025138;28;20475;-75
2021/07/04 05:18:58;;;;;;;10.93;9.23;;;18.80;99.90;;;;;;5029094;28;20473;-75
2021/07/04 05:21:24;;;;;;;13.57;10.57;;;18.80;99.90;;;;;;5027446;28;20478;-75
2021/07/04 05:23:51;;;;;;;12.40;10.77;;;18.90;99.90;;;;;;5033114;28;20497;-75
2021/07/04 05:26:20;;;;;;;12.07;10.40;;;18.90;99.90;;;;;;5030957;28;20462;-76
2021/07/04 05:28:47;;;;;;;11.97;10.77;;;18.90;99.90;;;;;;5022871;28;20433;-75
2021/07/04 05:31:13;;;;;;;13.97;12.60;;;18.90;99.90;;;;;;5018899;28;20767;-75
2021/07/04 05:33:40;;;;;;;10.60;9.50;;;18.90;99.90;;;;;;5028380;28;21010;-75
2021/07/04 05:36:07;;;;;;;9.77;8.70;;;19.00;99.90;;;;;;5030254;28;20514;-76
2021/07/04 05:38:36;;;;;;;9.87;8.70;;;19.20;99.90;;;;;;5022283;28;20804;-76
2021/07/04 05:41:03;;;;;;;10.97;9.40;;;19.30;99.90;;;;;;5028938;28;20513;-75
2021/07/04 05:43:31;;;;;;;9.70;8.70;;;19.40;99.90;;;;;;5017482;28;20790;-75
2021/07/04 05:45:59;;;;;;;9.00;8.10;;;19.60;99.90;;;;;;5014089;28;20486;-76
2021/07/04 05:48:26;;;;;;;9.43;8.43;;;19.90;99.90;;;;;;5014008;28;20512;-74
2021/07/04 05:50:53;;;;;;;11.13;8.53;;;20.20;99.90;;;;;;5008780;28;20469;-75
2021/07/04 05:53:20;;;;;;;10.27;8.93;;;20.40;99.90;;;;;;5012950;28;20805;-75
2021/07/04 05:55:47;;;;;;;8.50;7.70;;;20.50;99.90;;;;;;5026408;28;20461;-75
2021/07/04 05:58:14;;;;;;;9.53;8.40;;;20.60;99.90;;;;;;5017242;28;20431;-76
2021/07/04 06:00:42;;;;;;;9.23;8.40;;;20.70;99.90;;;;;;5023771;28;20454;-75
2021/07/04 06:03:09;;;;;;;9.00;7.83;;;20.90;99.90;;;;;;5015552;28;20577;-75
2021/07/04 06:05:36;;;;;;;10.50;7.50;;;21.10;99.90;;;;;;5026664;28;20485;-75
2021/07/04 06:08:04;;;;;;;10.07;7.80;;;21.30;99.90;;;;;;5028294;28;20461;-76
2021/07/04 06:10:31;;;;;;;7.37;6.67;;;21.60;99.90;;;;;;5019722;28;20486;-76
2021/07/04 06:12:58;;;;;;;8.63;7.60;;;21.80;99.90;;;;;;5016644;28;20435;-76
2021/07/04 06:15:25;;;;;;;7.90;6.80;;;22.10;99.90;;;;;;5006853;28;20482;-76
2021/07/04 06:17:53;;;;;;;7.43;6.73;;;22.50;99.90;;;;;;5022651;28;20450;-75
2021/07/04 06:20:20;;;;;;;11.97;7.50;;;22.80;99.90;;;;;;5020526;28;20482;-76
2021/07/04 06:22:49;;;;;;;7.60;6.90;;;23.20;99.90;;;;;;5019437;28;20541;-76
2021/07/04 06:25:17;;;;;;;7.40;6.60;;;23.50;99.90;;;;;;5012241;28;20486;-76
2021/07/04 06:27:44;;;;;;;8.17;7.37;;;23.90;99.90;;;;;;5015399;28;21045;-76
2021/07/04 06:30:13;;;;;;;7.60;6.90;;;24.30;99.90;;;;;;5029115;28;20541;-76
2021/07/04 06:32:41;;;;;;;8.23;7.37;;;24.70;99.90;;;;;;5019969;28;20450;-75
2021/07/04 06:35:12;;;;;;;7.10;6.43;;;25.00;99.90;;;;;;5013203;28;20454;-77
2021/07/04 06:37:39;;;;;;;7.80;6.77;;;25.30;99.90;;;;;;5013681;28;20457;-75
2021/07/04 06:40:08;;;;;;;8.20;7.23;;;25.50;99.90;;;;;;5021030;28;20982;-76
2021/07/04 06:42:35;;;;;;;8.73;7.83;;;25.80;99.90;;;;;;5010359;28;20597;-76
2021/07/04 06:45:03;;;;;;;7.00;6.40;;;26.00;99.90;;;;;;5026206;28;20489;-76
2021/07/04 06:47:30;;;;;;;6.23;5.63;;;26.30;99.90;;;;;;5028078;28;20434;-76
2021/07/04 06:49:57;;;;;;;9.13;6.80;;;26.50;99.90;;;;;;5020344;28;20467;-76
2021/07/04 06:52:25;;;;;;;6.77;6.17;;;26.70;99.90;;;;;;5029816;28;20480;-75
2021/07/04 06:54:52;;;;;;;6.20;5.60;;;26.90;99.90;;;;;;5019590;28;20435;-76
2021/07/04 07:00:02;;;;;;;6.17;5.57;;;27.40;99.90;;;;;;5018581;28;20824;-76
2021/07/04 07:02:29;;;;;;;6.40;5.80;;;27.60;99.90;;;;;;5028910;28;20488;-76
2021/07/04 07:04:56;;;;;;;6.03;5.53;;;27.80;99.90;;;;;;5027344;28;20486;-76
2021/07/04 07:07:25;;;;;;;6.63;5.90;;;27.90;99.90;;;;;;5023039;28;20458;-78
2021/07/04 07:09:52;;;;;;;7.73;5.90;;;28.00;99.90;;;;;;5031417;28;20444;-80
2021/07/04 07:12:19;;;;;;;6.37;5.77;;;28.00;99.90;;;;;;5029343;28;21013;-80
2021/07/04 07:14:46;;;;;;;7.33;6.37;;;27.90;99.90;;;;;;5030882;28;20958;-79
2021/07/04 07:17:13;;;;;;;6.70;6.00;;;27.90;99.90;;;;;;5014965;28;20466;-83
2021/07/04 07:19:40;;;;;;;7.30;6.60;;;27.80;99.90;;;;;;5014532;28;20454;-79
2021/07/04 07:22:07;;;;;;;7.07;6.27;;;27.70;99.90;;;;;;5015028;28;20470;-78
2021/07/04 07:24:36;;;;;;;7.60;6.90;;;27.50;99.90;;;;;;5014126;28;20473;-78
2021/07/04 07:27:03;;;;;;;8.10;6.20;;;27.40;99.90;;;;;;5014566;28;20453;-78
2021/07/04 07:29:30;;;;;;;7.27;6.47;;;27.20;99.90;;;;;;5020381;28;20466;-78
2021/07/04 07:31:57;;;;;;;9.93;6.90;;;27.20;99.90;;;;;;5017099;28;20466;-78
2021/07/04 07:34:25;;;;;;;6.73;6.07;;;27.10;99.90;;;;;;5019737;28;20468;-78
2021/07/04 07:36:53;;;;;;;7.80;6.20;;;27.00;99.90;;;;;;5027596;28;20780;-78
2021/07/04 07:39:19;;;;;;;8.27;6.47;;;27.10;99.90;;;;;;5013326;28;20446;-79
2021/07/04 07:41:49;;;;;;;7.30;6.60;;;27.30;99.90;;;;;;5013263;28;20481;-79
2021/07/04 07:44:16;;;;;;;7.80;6.03;;;27.40;99.90;;;;;;5025102;28;20442;-77
2021/07/04 07:46:44;;;;;;;7.80;6.40;;;27.50;99.90;;;;;;5017234;28;20450;-78
2021/07/04 07:49:11;;;;;;;6.53;5.97;;;27.50;99.90;;;;;;5023242;28;20970;-79
2021/07/04 07:51:38;;;;;;;7.40;6.70;;;27.40;99.90;;;;;;5024675;28;20978;-78
2021/07/04 07:54:05;;;;;;;7.67;6.77;;;27.50;99.90;;;;;;5012504;28;20463;-78
2021/07/04 07:56:32;;;;;;;7.50;5.80;;;27.40;99.90;;;;;;5013903;28;20454;-78
2021/07/04 07:59:00;;;;;;;7.53;6.23;;;27.50;99.90;;;;;;5022914;28;20814;-78
2021/07/04 08:01:27;;;;;;;7.43;6.63;;;27.90;99.90;;;;;;5022034;28;20485;-78
2021/07/04 08:03:54;;;;;;;6.40;5.80;;;28.30;99.90;;;;;;5024578;28;20438;-78
2021/07/04 08:06:21;;;;;;;6.63;6.03;;;28.80;99.90;;;;;;5018693;28;20490;-80
2021/07/04 08:08:48;;;;;;;6.37;5.77;;;29.50;99.90;;;;;;5011908;28;20453;-79
2021/07/04 08:11:15;;;;;;;6.10;5.40;;;29.80;99.90;;;;;;5016140;28;20458;-80
2021/07/04 08:13:42;;;;;;;5.70;5.03;;;30.10;99.90;;;;;;5020909;28;20458;-78
2021/07/04 08:16:10;;;;;;;5.83;5.27;;;30.40;99.90;;;;;;5026191;28;20437;-79
2021/07/04 08:18:37;;;;;;;7.13;6.43;;;30.80;99.90;;;;;;5028568;28;20808;-83
2021/07/04 08:21:05;;;;;;;6.80;6.10;;;31.10;99.90;;;;;;5013538;28;20482;-79
2021/07/04 08:23:31;;;;;;;5.70;5.20;;;31.20;99.90;;;;;;5012388;28;20455;-79
2021/07/04 08:25:58;;;;;;;6.47;5.63;;;31.20;99.90;;;;;;5010297;28;20490;-80
2021/07/04 08:28:25;;;;;;;6.00;5.50;;;31.10;99.90;;;;;;5013389;28;20954;-79
2021/07/04 08:30:52;;;;;;;5.70;5.10;;;30.90;99.90;;;;;;5012139;28;20477;-77
2021/07/04 08:33:21;;;;;;;6.17;5.57;;;30.80;99.90;;;;;;5008121;28;20971;-78
2021/07/04 08:35:47;;;;;;;5.50;5.00;;;30.80;99.90;;;;;;5012971;28;20465;-78
2021/07/04 08:38:19;;;;;;;5.80;5.20;;;30.90;99.90;;;;;;5007418;28;20886;-79
2021/07/04 08:40:47;;;;;;;6.60;6.00;;;30.90;99.90;;;;;;5012491;28;20875;-77
2021/07/04 08:43:26;;;;;;;5.13;4.57;;;31.10;99.90;;;;;;5026265;28;20525;-78
2021/07/04 08:45:53;;;;;;;7.40;5.60;;;31.30;99.90;;;;;;5024758;28;20498;-78
2021/07/04 08:48:21;;;;;;;9.53;6.20;;;31.40;99.90;;;;;;5014631;28;20500;-75
2021/07/04 08:50:49;;;;;;;5.83;5.33;;;31.60;99.90;;;;;;5018525;28;20474;-77
2021/07/04 08:53:16;;;;;;;5.90;5.40;;;31.90;99.90;;;;;;5012263;28;20419;-78
2021/07/04 08:55:43;;;;;;;6.07;5.57;;;32.10;99.90;;;;;;5012814;28;20450;-78
2021/07/04 08:58:10;;;;;;;7.30;5.57;;;32.50;99.90;;;;;;5017370;28;20619;-78
2021/07/04 09:00:37;;;;;;;7.60;4.87;;;32.70;99.90;;;;;;5028027;28;20466;-77
2021/07/04 09:03:27;;;;;;;6.53;5.97;;;33.00;99.90;;;;;;5024413;28;20974;-77
2021/07/04 09:05:56;;;;;;;6.20;5.60;;;33.10;99.90;;;;;;5025944;28;20496;-78
2021/07/04 09:08:23;;;;;;;6.10;5.50;;;33.30;99.90;;;;;;5029379;28;20573;-77
2021/07/04 09:11:08;;;;;;;4.97;4.57;;;33.60;99.90;;;;;;5027862;28;20568;-78
2021/07/04 09:13:35;;;;;;;6.70;6.10;;;33.60;99.90;;;;;;5015568;28;20923;-78
2021/07/04 09:16:04;;;;;;;6.80;6.03;;;33.60;99.90;;;;;;5011464;28;20472;-79
2021/07/04 09:18:32;;;;;;;5.57;5.00;;;33.70;99.90;;;;;;5007057;28;20450;-78
2021/07/04 09:20:59;;;;;;;12.33;6.00;;;33.70;99.90;;;;;;5007083;28;20463;-78
2021/07/04 09:23:34;;;;;;;5.70;5.10;;;33.70;99.90;;;;;;5024201;28;20963;-79
2021/07/04 09:26:01;;;;;;;5.97;5.40;;;33.70;99.90;;;;;;5025215;28;20484;-79
2021/07/04 09:28:28;;;;;;;5.57;5.13;;;33.50;99.90;;;;;;5013196;28;20970;-78
2021/07/04 09:30:57;;;;;;;5.27;4.77;;;33.20;99.90;;;;;;5010529;28;20478;-76
2021/07/04 09:33:27;;;;;;;4.90;4.40;;;33.00;99.90;;;;;;5025192;28;20446;-77
2021/07/04 09:35:58;;;;;;;5.50;5.00;;;32.70;99.90;;;;;;5021891;28;20462;-79
2021/07/04 09:38:29;;;;;;;5.90;5.13;;;32.20;99.90;;;;;;5002386;28;20643;-79
2021/07/04 09:40:56;;;;;;;5.53;5.00;;;31.80;99.90;;;;;;5025780;28;20474;-77
2021/07/04 09:43:24;;;;;;;6.33;5.70;;;31.40;99.90;;;;;;5013767;28;20961;-78
2021/07/04 09:45:53;;;;;;;6.33;5.77;;;31.10;99.90;;;;;;5011907;28;20479;-78
2021/07/04 09:48:23;;;;;;;6.10;5.60;;;30.70;99.90;;;;;;5027003;28;20532;-80
2021/07/04 09:50:52;;;;;;;6.10;5.50;;;30.30;99.90;;;;;;5014393;28;21333;-77
2021/07/04 09:53:22;;;;;;;6.30;5.70;;;30.00;99.90;;;;;;5019263;28;20466;-79
2021/07/04 09:55:51;;;;;;;6.40;5.90;;;29.60;99.90;;;;;;5023661;28;20458;-80
2021/07/04 09:58:20;;;;;;;6.67;6.10;;;29.30;99.90;;;;;;5025588;28;20633;-80
2021/07/04 10:00:48;;;;;;;7.00;6.40;;;29.00;99.90;;;;;;5028474;28;20458;-77
2021/07/04 10:03:18;;;;;;;7.50;6.63;;;28.70;99.90;;;;;;5019576;28;20458;-77
2021/07/04 10:06:00;;;;;;;6.80;6.20;;;28.50;99.90;;;;;;5015536;28;20936;-77
2021/07/04 10:08:29;;;;;;;8.33;7.53;;;28.10;99.90;;;;;;5017566;28;20531;-78
2021/07/04 10:10:58;;;;;;;7.90;7.17;;;27.70;99.90;;;;;;5017262;28;20482;-79
2021/07/04 10:13:28;;;;;;;8.27;7.47;;;27.40;99.90;;;;;;5025148;28;20456;-78
2021/07/04 10:15:55;;;;;;;9.23;7.80;;;27.10;99.90;;;;;;5024926;28;20453;-77
2021/07/04 10:18:23;;;;;;;9.00;8.10;;;26.70;99.90;;;;;;5012836;28;20465;-78
2021/07/04 10:20:53;;;;;;;6.97;6.40;;;26.40;99.90;;;;;;5016703;28;20574;-76
2021/07/04 10:23:22;;;;;;;8.43;7.63;;;26.30;99.90;;;;;;5009651;28;20450;-76
2021/07/04 10:25:52;;;;;;;10.07;9.00;;;26.10;99.90;;;;;;5010921;28;20494;-76
2021/07/04 10:28:25;;;;;;;9.90;8.67;;;25.80;99.90;;;;;;5011802;28;20458;-76
2021/07/04 10:30:53;;;;;;;8.70;6.97;;;25.40;99.90;;;;;;5010760;28;20451;-76
2021/07/04 10:33:22;;;;;;;7.93;6.83;;;25.10;99.90;;;;;;4997123;28;20469;-76
2021/07/04 10:36:00;;;;;;;10.80;7.83;;;24.90;99.90;;;;;;5023280;28;20478;-75
2021/07/04 10:38:37;;;;;;;6.27;5.63;;;24.60;99.90;;;;;;5023447;28;20461;-76
2021/07/04 10:41:09;;;;;;;6.83;6.10;;;24.40;99.90;;;;;;5010301;28;20486;-79
2021/07/04 10:43:52;;;;;;;5.47;4.97;;;24.20;99.90;;;;;;5012922;28;20437;-77
2021/07/04 10:46:20;;;;;;;9.70;5.60;;;24.00;99.90;;;;;;5007263;28;20515;-77
2021/07/04 10:48:55;;;;;;;6.10;5.50;;;23.80;99.90;;;;;;5022292;28;20459;-79
2021/07/04 10:51:23;;;;;;;4.73;4.33;;;23.60;99.90;;;;;;5006105;28;20465;-78
2021/07/04 10:53:52;;;;;;;4.37;3.97;;;23.50;99.90;;;;;;5010400;28;20477;-79
2021/07/04 10:56:39;;;;;;;4.30;3.70;;;23.40;99.90;;;;;;5010000;28;20595;-78
2021/07/04 10:59:09;;;;;;;4.47;3.83;;;23.30;99.90;;;;;;5013629;28;20504;-78
2021/07/04 11:01:52;;;;;;;5.27;4.13;;;23.30;99.90;;;;;;5022567;28;20482;-79
2021/07/04 11:04:48;;;;;;;4.20;3.60;;;23.30;99.90;;;;;;5012484;28;20457;-79
2021/07/04 11:07:15;;;;;;;4.83;4.43;;;23.30;99.90;;;;;;5024184;28;20495;-78
2021/07/04 11:10:12;;;;;;;5.00;4.37;;;23.30;99.90;;;;;;5018180;28;20450;-79
2021/07/04 11:12:40;;;;;;;4.83;4.30;;;23.30;99.90;;;;;;5010564;28;20455;-77
2021/07/04 11:15:26;;;;;;;4.83;4.37;;;23.30;99.90;;;;;;5024721;28;21183;-78
2021/07/04 11:18:09;;;;;;;4.27;3.90;;;23.40;99.90;;;;;;5016404;28;20808;-77
2021/07/04 11:20:58;;;;;;;4.30;3.70;;;23.50;99.90;;;;;;5023036;28;20831;-79
2021/07/04 11:23:27;;;;;;;4.30;3.90;;;23.60;99.90;;;;;;5022587;28;20473;-78
2021/07/04 11:25:57;;;;;;;4.40;3.63;;;23.70;99.90;;;;;;5008191;28;20501;-78
2021/07/04 11:28:28;;;;;;;4.70;4.30;;;23.80;99.90;;;;;;5000729;28;20451;-76
2021/07/04 11:31:16;;;;;;;4.07;3.67;;;23.80;99.90;;;;;;5014354;28;21167;-76
2021/07/04 11:33:44;;;;;;;4.57;4.17;;;23.90;99.90;;;;;;5005003;28;20455;-77
2021/07/04 11:36:20;;;;;;;6.40;3.43;;;24.00;99.90;;;;;;5012545;28;20454;-78
2021/07/04 11:38:50;;;;;;;4.00;3.60;;;24.10;99.90;;;;;;5009616;28;23212;-76
2021/07/04 11:41:21;;;;;;;3.80;3.50;;;24.10;99.90;;;;;;5012712;28;20492;-77
2021/07/04 11:43:50;;;;;;;4.00;3.70;;;24.20;99.90;;;;;;5017535;28;20956;-74
2021/07/04 11:46:19;;;;;;;4.30;3.90;;;24.30;99.90;;;;;;5026671;28;20489;-74
2021/07/04 11:49:08;;;;;;;5.70;4.40;;;24.40;99.90;;;;;;5023614;28;20944;-74
2021/07/04 11:51:41;;;;;;;4.73;4.30;;;24.40;99.90;;;;;;4980675;28;20574;-76
2021/07/04 11:54:14;;;;;;;4.27;3.90;;;24.50;99.90;;;;;;4965751;28;20532;-76
2021/07/04 11:56:43;;;;;;;5.07;4.00;;;24.70;99.90;;;;;;4978179;28;20464;-79
2021/07/04 11:59:14;;;;;;;3.77;3.47;;;24.70;99.90;;;;;;4940949;28;20605;-78
2021/07/04 12:01:47;;;;;;;4.43;3.60;;;24.80;99.90;;;;;;4974544;28;20471;-78
2021/07/04 12:04:15;;;;;;;4.77;4.17;;;24.80;99.90;;;;;;4971731;28;20470;-81
2021/07/04 12:06:59;;;;;;;4.30;3.90;;;24.90;99.90;;;;;;4966319;28;20998;-82
2021/07/04 12:09:36;;;;;;;4.20;3.80;;;24.90;99.90;;;;;;4991803;28;20448;-79
2021/07/04 12:12:03;;;;;;;4.07;3.67;;;25.00;99.90;;;;;;5022328;28;20567;-77
2021/07/04 12:14:34;;;;;;;5.10;4.60;;;24.90;99.90;;;;;;5015533;28;20455;-77
2021/07/04 12:17:24;;;;;;;4.80;4.40;;;24.90;99.90;;;;;;5015247;28;20787;-77
2021/07/04 12:19:58;;;;;;;4.17;3.70;;;24.90;99.90;;;;;;5016236;28;20489;-78
2021/07/04 12:22:28;;;;;;;4.27;3.87;;;24.90;99.90;;;;;;5028542;28;20515;-78
2021/07/04 12:24:56;;;;;;;3.50;3.20;;;24.80;99.90;;;;;;5022812;28;20461;-79
2021/07/04 12:27:39;;;;;;;3.83;3.53;;;24.70;99.90;;;;;;5012897;28;20485;-78
2021/07/04 12:30:12;;;;;;;4.63;3.80;;;24.60;99.90;;;;;;5020844;28;20488;-76
2021/07/04 12:32:41;;;;;;;4.87;4.37;;;24.50;99.90;;;;;;5032410;28;20442;-76
2021/07/04 12:35:10;;;;;;;4.13;3.80;;;24.30;99.90;;;;;;5026564;28;20465;-77
2021/07/04 12:37:37;;;;;;;4.97;3.80;;;24.20;99.90;;;;;;4998529;28;20464;-76
2021/07/04 12:40:16;;;;;;;5.20;4.13;;;24.10;99.90;;;;;;5012091;28;20458;-76
2021/07/04 12:42:44;;;;;;;4.33;3.93;;;24.10;99.90;;;;;;5010724;28;20462;-77
2021/07/04 12:45:15;;;;;;;4.40;3.87;;;23.80;99.90;;;;;;5016624;28;20546;-75
2021/07/04 12:47:42;;;;;;;3.73;3.33;;;23.70;99.90;;;;;;5011531;28;20486;-76
2021/07/04 12:50:13;;;;;;;3.33;3.00;;;23.60;99.90;;;;;;5021763;28;20986;-76
2021/07/04 12:52:53;;;;;;;3.87;3.47;;;23.60;99.90;;;;;;5011137;28;20986;-75